Estación Meteorológica Peña el Pijo (Robertgarden) [ 06/14/24 08:28:13 CEST ]

Fecha Hora Presion(HPa) Temp (°C) Humedad % Rocio (°C) Viento ( m/s) Direccion Lluvia 1Hora(mm) Lluvia 24H(mm) LLuvia Total(mm)
2009-Jan-31 01:01:12 1000.800 3.9 86 1.8         200.46
2009-Jan-31 02:03:21 1000.400 3.4 86 1.3         200.46
2009-Jan-31 03:01:11 999.900 3.3 84 0.8         200.46
2009-Jan-31 04:01:17 999.500 6.9 73 2.4 0.5 SE     200.46
2009-Jan-31 05:01:13 999.200 5.6 77 1.9         200.46
2009-Jan-31 06:01:16 998.400 4.4 86 2.2     0.51 0.51 200.98
2009-Jan-31 07:01:19 998.000 3.8 88 2.0       0.51 200.98
2009-Jan-31 08:01:14 997.800 3.5 90 2.0       0.51 200.98
2009-Jan-31 09:01:12 998.400 3.8 89 2.1     1.03 1.55 202.02
2009-Jan-31 10:01:14 998.900 4.2 84 1.7       1.55 202.02
2009-Jan-31 11:01:18 998.700 3.9 86 1.8       1.55 202.02
2009-Jan-31 12:01:14 998.500 4.3 83 1.6 1.2 ENE   1.55 202.02
2009-Jan-31 13:01:13 998.400 4.5 84 2.0     0.51 2.07 202.53
2009-Jan-31 14:01:12 997.800 5.8 77 2.1       2.07 202.53
2009-Jan-31 15:01:13 998.000 4.4 79 1.1       2.07 202.53
2009-Jan-31 16:01:13 998.000 3.3 85 1.0     1.03 3.10 203.57
2009-Jan-31 17:01:16 998.100 2.9 86 0.8     1.03 4.14 204.61
2009-Jan-31 18:01:17 998.300 3.6 81 0.7       4.14 204.61
2009-Jan-31 19:01:14 998.200 3.0 83 0.4 0.8 ESE   4.14 204.61
2009-Jan-31 20:01:13 999.400 3.2 79 -0.1       4.14 204.61
2009-Jan-31 21:01:20 999.200 3.1 75 -0.9 1.4 ESE   4.14 204.61
2009-Jan-31 22:01:17 999.000 3.0 74 -1.2 3.1 SSW   4.14 204.61
2009-Jan-31 23:01:14 998.900 2.9 75 -1.1       4.14 204.61

Temperatura Máxima:    Temperatura Mínima:
Presión Máxima:1000.800 Hpa    Presión Mínima:997.800 Hpa


Volver